עמוד ראשי
METAR-TAF:

METAR-TAF

שדות תעופה :

Tin City, אלסקה, ארצות הברית

קו רוחב: 65-34N, קו אורך: 167-55W, גובה: 83מטר

תצפית מזג אוויר נוכחית

הדו"ח נערך לפני 56דקות, בשעה 10:55 UTC
רוח 15קשר מכיוון דרום/דרום-מערב, משתנה בין מזרח/צפון-מזרח ו צפון-מערב
טמפרטורת 2 צלסיוס
לחות 100%
לחץ 1025 hPa
ראות: 16.1קילומטר
מעונן בגובה 1000רגל

METAR: PATC 151055Z AUTO 20015KT 070V320 10SM OVC010 02/02 A3028 RMK AO2 SLP257 T00170015

זמן: 03:51 (11:51 UTC)


TAF: חסר

תצפיות ותחזיות מזג אוויר לגבי יותר מ- 4,000 שדות תעופה ברחבי העולם. דוחות METAR ו- TAF.

התחנות הזמינות מסומנות בנקודות צהובות ואדומות על גבי המפה.

העבר את העכבר לנקודה הצבעונית על מנת לראות את שם התחנה.

לאחר מכן, לחץ כדי לראות את תוכן ואת תחזיות מזג האוויר.

כדי לשנות את המפה: לחץ על הכפתורים הירוקים עם הפלוס השחור כדי להתקרב; על הכפתור הירוק עם המקף כדי להתרחק; או בחיצים הירוקים למפות סמוכות.


METAR-TAF: